Time;durP1;ratioP1;P1;durP2;ratioP2;P2;SDS_P1;SDS_P2;PMS_P1;PMS_P2;Temp;Humidity;BMP_temperature;BMP_pressure;BME280_temperature;BME280_humidity;BME280_pressure;Samples;Min_cycle;Max_cycle;Signal;HPM_P1;HPM_P2
2021/05/13 00:01:49;;;;;;;13.95;8.78;;;;;;;14.65;63.13;95867.44;1672045;83;25672;-83
2021/05/13 00:04:16;;;;;;;19.10;9.08;;;;;;;14.63;63.37;95859.28;1707452;82;25724;-82
2021/05/13 00:06:42;;;;;;;11.35;7.97;;;;;;;14.59;63.46;95860.40;1738243;81;25638;-82
2021/05/13 00:09:10;;;;;;;14.10;8.63;;;;;;;14.56;63.57;95851.44;1725549;82;25561;-83
2021/05/13 00:11:39;;;;;;;13.40;9.18;;;;;;;14.55;63.46;95848.45;1731436;82;27331;-82
2021/05/13 00:14:08;;;;;;;10.82;8.58;;;;;;;14.60;63.60;95848.45;1730924;81;25799;-82
2021/05/13 00:16:36;;;;;;;12.93;8.60;;;;;;;14.61;63.77;95851.41;1712316;82;25670;-83
2021/05/13 00:19:07;;;;;;;13.35;9.15;;;;;;;14.58;63.66;95849.27;1731538;82;26512;-82
2021/05/13 00:21:38;;;;;;;12.25;8.33;;;;;;;14.64;63.64;95842.72;1743501;81;25442;-82
2021/05/13 00:24:07;;;;;;;16.07;9.75;;;;;;;14.68;63.82;95842.45;1741913;81;27504;-82
2021/05/13 00:26:47;;;;;;;11.85;8.90;;;;;;;14.64;63.77;95837.29;1752937;81;25543;-82
2021/05/13 00:29:15;;;;;;;11.75;8.93;;;;;;;14.61;63.84;95839.19;1739128;81;25673;-83
2021/05/13 00:31:43;;;;;;;11.63;9.48;;;;;;;14.58;63.97;95835.69;1746243;81;25619;-82
2021/05/13 00:34:10;;;;;;;14.58;9.58;;;;;;;14.58;63.96;95837.05;1752879;81;25740;-82
2021/05/13 00:36:39;;;;;;;13.62;9.63;;;;;;;14.61;64.08;95836.47;1731788;81;28009;-83
2021/05/13 00:39:09;;;;;;;13.25;8.48;;;;;;;14.54;64.17;95827.00;1738179;81;25713;-82
2021/05/13 00:41:37;;;;;;;12.80;8.55;;;;;;;14.44;64.16;95829.19;1741957;81;25668;-82
2021/05/13 00:44:07;;;;;;;13.85;9.63;;;;;;;14.43;64.24;95824.84;1752589;81;25398;-82
2021/05/13 00:46:35;;;;;;;13.03;8.85;;;;;;;14.49;64.35;95824.30;1737163;81;25628;-82
2021/05/13 00:49:05;;;;;;;13.88;8.93;;;;;;;14.46;64.45;95824.30;1722993;81;27525;-82
2021/05/13 00:51:31;;;;;;;12.75;8.75;;;;;;;14.41;64.50;95822.40;1722630;81;25696;-82
2021/05/13 00:53:57;;;;;;;15.63;9.83;;;;;;;14.35;64.44;95818.59;1744484;81;25730;-83
2021/05/13 00:56:29;;;;;;;14.03;8.55;;;;;;;14.36;64.77;95818.86;1723012;81;25618;-82
2021/05/13 00:59:01;;;;;;;19.60;9.08;;;;;;;14.33;64.89;95816.14;1723226;81;25704;-82
2021/05/13 01:01:37;;;;;;;12.80;8.83;;;;;;;14.35;65.03;95813.98;1722827;81;27610;-82
2021/05/13 01:03:54;;;;;;;14.45;8.55;;;;;;;14.31;65.01;95810.17;1725152;81;25694;-82
2021/05/13 01:06:21;;;;;;;14.90;9.25;;;;;;;14.31;65.13;95806.09;1744529;81;25606;-81
2021/05/13 01:08:48;;;;;;;13.40;10.00;;;;;;;14.34;65.40;95815.06;1755943;81;26145;-82
2021/05/13 01:11:15;;;;;;;15.40;9.58;;;;;;;14.32;65.25;95808.27;1756038;81;25637;-82
2021/05/13 01:14:03;;;;;;;13.62;10.35;;;;;;;14.37;65.40;95809.60;1750434;81;28036;-82
2021/05/13 01:16:35;;;;;;;12.55;9.15;;;;;;;14.37;65.51;95802.28;1744081;81;25649;-82
2021/05/13 01:18:57;;;;;;;12.10;9.08;;;;;;;14.40;65.63;95803.67;1726290;81;25727;-82
2021/05/13 01:21:23;;;;;;;14.60;9.18;;;;;;;14.38;65.76;95791.69;1742310;81;25634;-82
2021/05/13 01:23:50;;;;;;;12.98;8.78;;;;;;;14.39;65.80;95799.29;1730291;81;25703;-82
2021/05/13 01:26:18;;;;;;;14.70;9.33;;;;;;;14.39;66.00;95791.15;1739253;81;27318;-82
2021/05/13 01:28:45;;;;;;;14.87;9.48;;;;;;;14.37;66.25;95791.42;1755726;81;25614;-82
2021/05/13 01:31:11;;;;;;;16.25;10.50;;;;;;;14.32;66.17;95788.73;1756078;81;25153;-82
2021/05/13 01:33:42;;;;;;;14.50;10.00;;;;;;;14.34;66.35;95788.46;1756017;81;25673;-82
2021/05/13 01:36:06;;;;;;;11.30;9.08;;;;;;;14.35;66.36;95796.88;1755458;81;25698;-82
2021/05/13 01:38:33;;;;;;;13.58;9.78;;;;;;;14.39;66.31;95791.99;1751533;81;27320;-82
2021/05/13 01:41:04;;;;;;;17.77;10.30;;;;;;;14.46;66.57;95794.98;1731743;81;25691;-82
2021/05/13 01:43:32;;;;;;;14.83;10.50;;;;;;;14.46;66.60;95795.80;1756040;81;25640;-82
2021/05/13 01:46:00;;;;;;;16.85;10.60;;;;;;;14.43;66.55;95785.48;1755817;81;26094;-82
2021/05/13 01:48:31;;;;;;;16.00;10.95;;;;;;;14.48;66.63;95782.77;1742381;81;25639;-82
2021/05/13 01:50:57;;;;;;;14.80;9.15;;;;;;;14.53;66.66;95771.87;1749379;81;27317;-82
2021/05/13 01:53:24;;;;;;;12.55;10.08;;;;;;;14.60;66.70;95777.03;1752270;81;25570;-82
2021/05/13 01:55:51;;;;;;;12.45;8.63;;;;;;;14.61;66.79;95766.44;1753099;81;25666;-82
2021/05/13 01:58:17;;;;;;;15.03;9.43;;;;;;;14.64;66.76;95764.52;1755542;81;25567;-82
2021/05/13 02:00:45;;;;;;;11.50;9.23;;;;;;;14.66;66.75;95762.34;1755906;81;25629;-82
2021/05/13 02:03:13;;;;;;;11.55;9.13;;;;;;;14.69;67.03;95759.08;1752134;81;26801;-81
2021/05/13 02:05:39;;;;;;;15.32;9.00;;;;;;;14.68;66.99;95758.27;1731356;82;25740;-81
2021/05/13 02:08:06;;;;;;;15.55;8.98;;;;;;;14.71;67.03;95756.36;1738459;82;25673;-82
2021/05/13 02:10:33;;;;;;;14.03;10.25;;;;;;;14.73;67.20;95748.72;1717420;82;25570;-82
2021/05/13 02:24:56;;;;;;;13.28;10.55;;;;;;;15.38;66.75;95733.17;1855535;76;25771;-79
2021/05/13 02:27:24;;;;;;;15.43;9.98;;;;;;;15.18;66.74;95727.88;1853415;77;25606;-79
2021/05/13 02:29:50;;;;;;;13.15;8.95;;;;;;;15.14;67.05;95726.25;1852971;77;27399;-79
2021/05/13 02:32:17;;;;;;;10.78;8.38;;;;;;;15.12;67.13;95722.19;1851577;77;26342;-79
2021/05/13 02:34:43;;;;;;;11.63;8.60;;;;;;;15.12;67.26;95716.75;1808690;79;26281;-80
2021/05/13 02:37:10;;;;;;;10.60;8.33;;;;;;;15.06;67.24;95715.17;1784640;80;25598;-80
2021/05/13 02:39:37;;;;;;;10.75;9.20;;;;;;;15.06;67.28;95708.38;1782847;80;25647;-80
2021/05/13 02:42:04;;;;;;;17.23;10.88;;;;;;;15.08;67.25;95706.20;1786363;80;28025;-80
2021/05/13 02:44:31;;;;;;;14.15;10.45;;;;;;;15.09;67.39;95711.33;1786023;80;25603;-81
2021/05/13 02:46:58;;;;;;;12.55;9.43;;;;;;;15.08;67.45;95707.02;1786849;80;25608;-80
2021/05/13 02:49:24;;;;;;;11.63;9.85;;;;;;;15.10;67.42;95698.55;1772698;80;26306;-80
2021/05/13 02:51:51;;;;;;;12.43;8.95;;;;;;;15.08;67.57;95706.20;1780106;80;25430;-80
2021/05/13 02:54:17;;;;;;;10.65;9.45;;;;;;;15.03;67.59;95700.78;1786496;80;27300;-80
2021/05/13 02:56:44;;;;;;;12.70;9.85;;;;;;;15.01;67.75;95699.70;1771074;80;26281;-81
2021/05/13 02:59:11;;;;;;;13.13;9.90;;;;;;;15.01;67.89;95690.19;1780475;80;25284;-80
2021/05/13 03:01:38;;;;;;;12.55;10.13;;;;;;;14.98;67.85;95691.29;1785138;80;25660;-80
2021/05/13 03:04:05;;;;;;;15.10;10.93;;;;;;;14.96;68.00;95693.50;1790085;78;25378;-80
2021/05/13 03:06:31;;;;;;;13.32;10.88;;;;;;;14.97;68.05;95692.41;1807442;79;28254;-80
2021/05/13 03:08:59;;;;;;;15.35;10.28;;;;;;;14.99;68.06;95695.63;1811103;79;25523;-81
2021/05/13 03:11:28;;;;;;;15.88;10.28;;;;;;;15.00;68.12;95691.83;1798042;78;25754;-80
2021/05/13 03:13:57;;;;;;;12.60;10.63;;;;;;;15.00;68.00;95679.59;1789330;78;26279;-80
2021/05/13 03:16:23;;;;;;;14.03;10.72;;;;;;;15.03;68.15;95681.77;1788706;79;25549;-81
2021/05/13 03:18:52;;;;;;;12.50;10.20;;;;;;;15.06;68.17;95674.41;1780777;79;27302;-81
2021/05/13 03:29:13;;;;;;;16.62;10.75;;;;;;;15.03;68.51;95672.25;1792098;79;25642;-81
2021/05/13 03:31:40;;;;;;;15.53;11.22;;;;;;;14.98;68.60;95669.55;1798197;79;27337;-81
2021/05/13 03:34:06;;;;;;;22.10;11.55;;;;;;;14.97;68.58;95673.39;1795775;79;26319;-81
2021/05/13 03:36:33;;;;;;;14.73;10.68;;;;;;;15.00;68.63;95667.38;1792887;79;25626;-80
2021/05/13 03:39:04;;;;;;;19.85;12.93;;;;;;;15.04;68.61;95671.16;1796710;79;25654;-81
2021/05/13 03:41:30;;;;;;;16.40;11.83;;;;;;;15.07;68.64;95669.25;1782580;79;25640;-81
2021/05/13 03:43:57;;;;;;;16.10;12.58;;;;;;;15.11;68.63;95659.42;1787375;79;28019;-81
2021/05/13 03:46:24;;;;;;;16.60;11.90;;;;;;;15.13;68.70;95656.69;1786847;79;25566;-81
2021/05/13 03:48:50;;;;;;;16.40;11.35;;;;;;;15.18;68.68;95655.85;1780649;79;25532;-81
2021/05/13 03:51:17;;;;;;;16.87;11.60;;;;;;;15.20;68.58;95656.94;1788612;79;25593;-81
2021/05/13 03:53:44;;;;;;;14.13;11.63;;;;;;;15.23;68.56;95658.52;1781446;78;25712;-81
2021/05/13 03:56:12;;;;;;;16.90;11.70;;;;;;;15.24;68.71;95656.06;1784981;79;28212;-81
2021/05/13 03:58:48;;;;;;;16.60;12.35;;;;;;;15.19;68.85;95650.69;1783992;78;25577;-82
2021/05/13 04:01:15;;;;;;;17.30;12.63;;;;;;;15.16;68.85;95652.60;1784483;79;25748;-81
2021/05/13 04:03:39;;;;;;;18.00;13.80;;;;;;;15.18;68.88;95650.97;1780325;79;26053;-81
2021/05/13 04:06:06;;;;;;;18.50;13.22;;;;;;;15.23;68.88;95653.62;1779155;79;25895;-81
2021/05/13 04:08:33;;;;;;;19.75;12.95;;;;;;;15.29;68.79;95656.59;1801436;79;27408;-81
2021/05/13 04:11:00;;;;;;;18.77;12.95;;;;;;;15.31;68.68;95648.42;1780492;79;25644;-81
2021/05/13 04:13:26;;;;;;;18.48;13.28;;;;;;;15.32;68.73;95648.69;1809428;79;25221;-81
2021/05/13 04:15:54;;;;;;;20.08;13.22;;;;;;;15.29;68.81;95651.16;1790729;79;25811;-81
2021/05/13 04:18:21;;;;;;;18.73;12.90;;;;;;;15.29;68.94;95642.45;1793307;79;25613;-81
2021/05/13 04:20:48;;;;;;;21.02;13.83;;;;;;;15.28;69.16;95650.34;1793841;79;27347;-81
2021/05/13 04:23:14;;;;;;;15.72;13.40;;;;;;;15.28;69.14;95653.61;1789360;79;25699;-81
2021/05/13 04:25:41;;;;;;;20.95;13.98;;;;;;;15.29;69.35;95644.36;1813902;79;25577;-81
2021/05/13 04:28:07;;;;;;;21.73;13.30;;;;;;;15.28;69.42;95643.55;1782462;78;25554;-81
2021/05/13 04:30:34;;;;;;;17.82;14.18;;;;;;;15.28;69.28;95641.37;1780019;79;25814;-81
2021/05/13 04:33:04;;;;;;;19.32;14.15;;;;;;;15.28;69.21;95638.11;1803719;79;27402;-81
2021/05/13 04:35:30;;;;;;;17.82;14.40;;;;;;;15.31;69.20;95638.91;1780025;79;26321;-81
2021/05/13 04:37:57;;;;;;;18.32;14.13;;;;;;;15.28;69.23;95634.03;1803727;79;25654;-81
2021/05/13 04:40:24;;;;;;;17.52;14.38;;;;;;;15.31;69.34;95634.02;1785879;79;25268;-81
2021/05/13 04:42:50;;;;;;;20.17;14.70;;;;;;;15.31;69.18;95633.47;1801973;79;25645;-82
2021/05/13 04:45:17;;;;;;;17.98;14.05;;;;;;;15.34;69.12;95631.52;1789877;79;28091;-81
2021/05/13 04:50:11;;;;;;;22.42;14.90;;;;;;;15.43;69.05;95632.55;1810652;79;25606;-81
2021/05/13 04:52:40;;;;;;;25.77;15.03;;;;;;;15.48;68.97;95635.76;1797087;79;25698;-81
2021/05/13 04:55:08;;;;;;;24.85;15.03;;;;;;;15.50;69.10;95633.03;1797235;79;26091;-81
2021/05/13 04:57:37;;;;;;;16.10;14.25;;;;;;;15.48;69.13;95631.14;1811391;78;27481;-81
2021/05/13 05:00:08;;;;;;;21.85;15.38;;;;;;;15.49;69.21;95634.12;1779922;79;25544;-82
2021/05/13 05:02:35;;;;;;;19.73;15.07;;;;;;;15.50;69.21;95630.85;1781117;79;25732;-82
2021/05/13 05:05:02;;;;;;;23.05;16.07;;;;;;;15.49;69.29;95627.87;1802498;79;25779;-82
2021/05/13 05:07:28;;;;;;;21.97;17.42;;;;;;;15.49;69.35;95628.68;1780221;79;25514;-82
2021/05/13 05:09:55;;;;;;;27.70;17.92;;;;;;;15.52;69.44;95623.77;1803714;79;27363;-82
2021/05/13 05:12:21;;;;;;;27.73;20.20;;;;;;;15.48;69.37;95618.90;1779638;79;25467;-81
2021/05/13 05:14:48;;;;;;;26.33;19.92;;;;;;;15.49;69.50;95618.35;1789972;78;25668;-81
2021/05/13 05:17:15;;;;;;;27.85;19.85;;;;;;;15.47;69.38;95612.38;1785851;79;25552;-80
2021/05/13 05:19:42;;;;;;;24.45;17.57;;;;;;;15.50;69.46;95615.35;1786415;79;25621;-82
2021/05/13 05:22:08;;;;;;;24.85;19.40;;;;;;;15.52;69.64;95608.27;1784920;79;27310;-82
2021/05/13 05:24:35;;;;;;;24.80;20.72;;;;;;;15.52;69.56;95602.83;1767032;79;25629;-82
2021/05/13 05:27:02;;;;;;;24.92;20.52;;;;;;;15.55;69.55;95599.58;1779418;79;25573;-81
2021/05/13 05:29:28;;;;;;;28.70;20.88;;;;;;;15.60;69.56;95604.14;1792132;78;25798;-82
2021/05/13 05:31:55;;;;;;;25.27;19.65;;;;;;;15.64;69.68;95603.30;1777343;79;25719;-82
2021/05/13 05:34:21;;;;;;;24.72;19.20;;;;;;;15.67;69.64;95597.29;1800605;79;27420;-82
2021/05/13 05:36:48;;;;;;;24.47;18.85;;;;;;;15.74;69.45;95603.73;1793053;79;25671;-82
2021/05/13 05:39:15;;;;;;;30.23;21.68;;;;;;;15.79;69.33;95599.62;1791832;79;25623;-82
2021/05/13 05:41:41;;;;;;;29.80;22.45;;;;;;;15.83;69.15;95597.92;1780008;79;25775;-82
2021/05/13 05:44:08;;;;;;;29.50;23.18;;;;;;;15.90;69.02;95595.69;1784935;79;25664;-84
2021/05/13 05:46:35;;;;;;;31.65;23.95;;;;;;;15.95;68.95;95600.25;1795750;79;27423;-82
2021/05/13 05:49:02;;;;;;;33.63;23.42;;;;;;;15.99;68.83;95601.30;1789680;79;25639;-82
2021/05/13 05:51:28;;;;;;;31.95;23.45;;;;;;;16.03;68.75;95602.35;1802040;79;25654;-82
2021/05/13 05:53:55;;;;;;;101.25;27.40;;;;;;;16.06;68.71;95597.70;1794612;79;25618;-84
2021/05/13 05:56:21;;;;;;;39.55;23.70;;;;;;;16.08;68.87;95594.92;1788384;78;25230;-83
2021/05/13 05:58:48;;;;;;;30.12;21.48;;;;;;;16.08;68.93;95594.92;1809130;79;27313;-84
2021/05/13 06:01:15;;;;;;;28.02;22.60;;;;;;;16.11;68.90;95592.18;1794245;79;25516;-83
2021/05/13 06:03:41;;;;;;;33.73;22.62;;;;;;;16.15;68.83;95592.69;1776878;79;25989;-83
2021/05/13 06:06:08;;;;;;;34.38;24.07;;;;;;;16.17;68.68;95591.84;1798762;79;25722;-84
2021/05/13 06:08:36;;;;;;;35.65;23.75;;;;;;;16.20;68.57;95595.87;1790698;79;25612;-84
2021/05/13 06:11:02;;;;;;;34.13;25.40;;;;;;;16.20;68.43;95593.97;1794368;79;27374;-84
2021/05/13 06:13:30;;;;;;;30.48;23.67;;;;;;;16.21;68.48;95605.12;1805457;79;25599;-84
2021/05/13 06:15:56;;;;;;;32.50;21.90;;;;;;;16.17;68.60;95604.09;1786489;79;25739;-84
2021/05/13 06:18:23;;;;;;;32.78;22.25;;;;;;;16.19;68.45;95601.87;1810708;79;25554;-83
2021/05/13 06:20:50;;;;;;;32.98;22.70;;;;;;;16.24;68.31;95608.36;1788813;78;25601;-83
2021/05/13 06:23:17;;;;;;;33.58;21.90;;;;;;;16.26;68.36;95599.36;1781378;79;27345;-83
2021/05/13 06:25:44;;;;;;;27.65;22.27;;;;;;;16.29;68.33;95600.15;1775153;78;25719;-83
2021/05/13 06:28:10;;;;;;;35.23;23.12;;;;;;;16.32;68.51;95599.00;1808379;79;25710;-83
2021/05/13 06:30:39;;;;;;;30.57;23.50;;;;;;;16.36;68.56;95602.77;1800212;79;25733;-83
2021/05/13 06:33:05;;;;;;;37.80;26.20;;;;;;;16.40;68.55;95604.36;1812262;79;25646;-85
2021/05/13 06:35:34;;;;;;;29.98;24.32;;;;;;;16.45;68.65;95598.84;1810464;79;28068;-85
2021/05/13 06:38:00;;;;;;;27.15;21.62;;;;;;;16.50;68.56;95599.59;1780932;79;25704;-81
2021/05/13 06:40:27;;;;;;;30.17;22.15;;;;;;;16.56;68.33;95599.77;1795169;79;25596;-81
2021/05/13 06:42:54;;;;;;;26.35;20.10;;;;;;;16.59;68.22;95599.75;1800549;79;25765;-81
2021/05/13 06:45:21;;;;;;;26.27;19.35;;;;;;;16.60;68.26;95598.64;1799357;79;25576;-82
2021/05/13 06:47:47;;;;;;;25.20;19.70;;;;;;;16.57;68.10;95594.59;1796211;79;27318;-84
2021/05/13 06:50:15;;;;;;;29.80;20.30;;;;;;;16.60;68.13;95594.56;1730687;82;25660;-83
2021/05/13 06:52:41;;;;;;;27.40;20.43;;;;;;;16.68;68.16;95590.39;1767931;80;25646;-81
2021/05/13 06:55:09;;;;;;;26.25;20.65;;;;;;;16.75;68.05;95590.30;1767395;81;26476;-83
2021/05/13 06:57:36;;;;;;;23.42;18.52;;;;;;;16.76;67.87;95594.65;1732112;81;25724;-83
2021/05/13 07:00:04;;;;;;;24.05;16.60;;;;;;;16.80;67.78;95588.84;1773524;80;26795;-84
2021/05/13 07:02:32;;;;;;;22.27;18.07;;;;;;;16.89;67.58;95591.19;1767691;81;25656;-84
2021/05/13 07:04:59;;;;;;;22.07;17.98;;;;;;;16.99;67.39;95590.22;1741440;81;25634;-84
2021/05/13 07:07:26;;;;;;;22.25;17.95;;;;;;;17.01;67.31;95587.20;1710803;82;26116;-84
2021/05/13 07:09:53;;;;;;;19.75;16.45;;;;;;;17.03;67.25;95584.97;1762303;79;25701;-83
2021/05/13 07:12:19;;;;;;;24.43;17.12;;;;;;;17.05;67.18;95586.84;1758234;80;28033;-84
2021/05/13 07:14:46;;;;;;;25.75;17.85;;;;;;;17.09;67.11;95576.98;1753261;81;25665;-84
2021/05/13 07:17:12;;;;;;;20.00;16.50;;;;;;;17.16;67.06;95580.13;1738146;81;26269;-84
2021/05/13 07:19:39;;;;;;;21.48;16.85;;;;;;;17.22;66.95;95574.87;1751515;81;26116;-83
2021/05/13 07:22:06;;;;;;;17.35;15.48;;;;;;;17.28;66.98;95573.66;1745520;81;25629;-83
2021/05/13 07:24:32;;;;;;;19.70;16.85;;;;;;;17.36;67.04;95570.27;1739930;78;27319;-84
2021/05/13 07:26:59;;;;;;;19.42;15.85;;;;;;;17.48;66.75;95567.88;1806994;79;25600;-83
2021/05/13 07:29:26;;;;;;;23.50;16.10;;;;;;;17.61;66.68;95564.94;1775144;79;26090;-84
2021/05/13 07:31:52;;;;;;;20.57;16.02;;;;;;;17.64;66.15;95565.16;1767923;79;26294;-82
2021/05/13 07:34:19;;;;;;;19.00;15.72;;;;;;;17.68;66.27;95562.64;1788645;79;25703;-84
2021/05/13 07:36:46;;;;;;;17.95;14.50;;;;;;;17.79;66.12;95563.26;1803727;79;27298;-84
2021/05/13 07:39:13;;;;;;;16.87;13.22;;;;;;;17.91;66.15;95560.84;1790862;79;25629;-86
2021/05/13 07:41:39;;;;;;;20.32;14.15;;;;;;;17.99;66.04;95561.53;1777333;79;25600;-81
2021/05/13 07:44:07;;;;;;;19.82;13.83;;;;;;;18.06;65.62;95558.37;1808990;79;25597;-83
2021/05/13 07:46:37;;;;;;;17.90;13.55;;;;;;;18.10;65.30;95543.83;1798505;78;25653;-83
2021/05/13 07:49:02;;;;;;;15.48;13.50;;;;;;;18.18;65.30;95547.20;1797991;78;28143;-86
2021/05/13 07:51:29;;;;;;;18.07;14.68;;;;;;;18.26;64.91;95545.11;1798158;78;26398;-84
2021/05/13 07:53:56;;;;;;;19.27;13.85;;;;;;;18.31;64.57;95540.92;1776860;79;25652;-83
2021/05/13 07:56:22;;;;;;;18.37;12.88;;;;;;;18.36;64.40;95543.53;1783726;79;26086;-81
2021/05/13 07:58:49;;;;;;;19.95;13.62;;;;;;;18.40;64.10;95544.30;1805699;79;25608;-84
2021/05/13 08:01:16;;;;;;;17.27;13.70;;;;;;;18.44;64.10;95542.58;1814363;79;27283;-84
2021/05/13 08:03:42;;;;;;;16.65;12.95;;;;;;;18.49;64.00;95534.25;1781419;79;25791;-84
2021/05/13 08:06:11;;;;;;;14.85;13.30;;;;;;;18.52;63.93;95532.28;1814205;79;25643;-83
2021/05/13 08:08:37;;;;;;;16.87;13.50;;;;;;;18.53;63.81;95535.27;1803907;78;26129;-82
2021/05/13 08:11:04;;;;;;;20.57;16.05;;;;;;;18.60;63.71;95531.58;1785450;79;25640;-82
2021/05/13 08:13:31;;;;;;;22.42;15.28;;;;;;;18.74;63.62;95530.98;1798117;79;27349;-83
2021/05/13 08:15:58;;;;;;;19.80;15.05;;;;;;;18.89;63.63;95536.11;1786396;80;25643;-83
2021/05/13 08:18:25;;;;;;;19.52;15.95;;;;;;;18.97;63.44;95528.53;1745963;79;25631;-83
2021/05/13 08:20:52;;;;;;;20.27;15.88;;;;;;;19.25;63.79;95529.22;1777524;80;25608;-85
2021/05/13 08:23:18;;;;;;;16.97;13.98;;;;;;;19.70;63.51;95528.63;1814439;79;25614;-84
2021/05/13 08:25:45;;;;;;;15.15;13.50;;;;;;;19.98;63.21;95522.95;1782442;79;28029;-84
2021/05/13 08:28:12;;;;;;;14.93;12.73;;;;;;;20.22;62.37;95518.45;1774684;80;26108;-84
2021/05/13 08:30:38;;;;;;;14.03;11.68;;;;;;;20.31;61.73;95521.45;1770697;80;25747;-84
2021/05/13 08:33:05;;;;;;;18.73;14.07;;;;;;;20.36;61.30;95515.86;1750731;80;25609;-83
2021/05/13 08:35:32;;;;;;;15.90;13.85;;;;;;;20.52;61.29;95511.30;1765402;80;25631;-82
2021/05/13 08:37:59;;;;;;;18.30;14.43;;;;;;;20.47;60.82;95512.25;1775928;80;27306;-84
2021/05/13 08:40:26;;;;;;;15.43;13.70;;;;;;;20.47;60.54;95508.95;1776174;80;25623;-84
2021/05/13 08:42:52;;;;;;;18.48;14.00;;;;;;;20.36;60.31;95513.13;1770319;80;26263;-84
2021/05/13 08:45:19;;;;;;;19.80;14.33;;;;;;;20.33;60.45;95513.72;1787781;80;25603;-84
2021/05/13 08:47:46;;;;;;;16.93;13.93;;;;;;;20.40;60.55;95514.67;1753902;81;25234;-82
2021/05/13 08:50:16;;;;;;;15.32;13.08;;;;;;;20.46;60.11;95515.55;1754164;81;28076;-83
2021/05/13 08:52:43;;;;;;;16.75;13.53;;;;;;;20.46;59.90;95512.81;1752509;81;25770;-84
2021/05/13 08:55:11;;;;;;;14.30;12.90;;;;;;;20.45;59.85;95509.83;1753921;81;25678;-82
2021/05/13 08:57:38;;;;;;;14.33;12.63;;;;;;;20.47;59.72;95503.47;1755256;81;25654;-82
2021/05/13 09:00:08;;;;;;;15.48;12.53;;;;;;;20.62;59.42;95505.51;1764988;81;26498;-83
2021/05/13 09:02:35;;;;;;;15.35;12.85;;;;;;;20.79;59.23;95509.62;1764910;81;28158;-82
2021/05/13 09:05:02;;;;;;;16.45;12.35;;;;;;;21.03;59.07;95505.83;1763375;80;25704;-83
2021/05/13 09:07:32;;;;;;;13.62;12.07;;;;;;;21.63;58.88;95503.58;1763075;81;26403;-82
2021/05/13 09:10:03;;;;;;;12.68;11.25;;;;;;;22.05;57.83;95494.98;1761447;80;26065;-85
2021/05/13 09:12:35;;;;;;;15.27;11.70;;;;;;;22.41;57.27;95487.59;1765226;80;25703;-84
2021/05/13 09:15:18;;;;;;;14.93;13.28;;;;;;;22.80;56.79;95488.33;1754354;81;26820;-87
2021/05/13 09:17:47;;;;;;;16.07;12.88;;;;;;;23.18;56.17;95487.59;1737726;81;25575;-82
2021/05/13 09:20:30;;;;;;;17.55;13.38;;;;;;;23.42;55.32;95488.83;1743448;80;25653;-83
2021/05/13 09:23:16;;;;;;;14.68;12.13;;;;;;;23.30;54.71;95484.89;1758102;81;25759;-84
2021/05/13 09:25:46;;;;;;;18.85;12.80;;;;;;;23.09;54.46;95476.41;1767763;80;25652;-84
2021/05/13 09:28:13;;;;;;;15.68;11.68;;;;;;;23.03;54.49;95477.77;1797452;78;28234;-86
2021/05/13 09:30:40;;;;;;;12.30;11.03;;;;;;;22.95;54.30;95471.19;1785587;79;25575;-85
2021/05/13 09:33:10;;;;;;;14.95;11.28;;;;;;;22.85;53.92;95472.98;1788273;79;25921;-85
2021/05/13 09:35:37;;;;;;;12.65;10.98;;;;;;;22.74;53.87;95473.92;1805392;79;25596;-85
2021/05/13 09:38:07;;;;;;;12.23;10.70;;;;;;;22.75;53.80;95472.78;1841726;77;25626;-85
2021/05/13 09:40:44;;;;;;;12.35;10.23;;;;;;;22.70;53.76;95469.45;1841953;77;27313;-85
2021/05/13 09:43:17;;;;;;;13.13;10.65;;;;;;;22.60;53.13;95468.69;1836203;77;25733;-85
2021/05/13 09:45:50;;;;;;;11.55;9.90;;;;;;;22.45;53.82;95460.24;1832195;77;25649;-84
2021/05/13 09:48:43;;;;;;;11.53;10.10;;;;;;;22.68;53.91;95464.28;1800430;79;25591;-87
2021/05/13 09:51:31;;;;;;;22.05;9.35;;;;;;;22.74;53.17;95461.55;1772692;80;25608;-84
2021/05/13 09:54:15;;;;;;;10.43;9.33;;;;;;;22.68;53.01;95457.97;1804275;79;27329;-85
2021/05/13 09:56:49;;;;;;;11.90;10.32;;;;;;;22.46;53.02;95435.73;1800219;79;25706;-85
2021/05/13 09:59:28;;;;;;;14.85;11.48;;;;;;;22.60;53.08;95450.00;1804511;78;25741;-87
2021/05/13 10:02:02;;;;;;;14.83;13.15;;;;;;;22.91;53.61;95451.82;1841771;77;25609;-87
2021/05/13 10:04:29;;;;;;;16.87;12.43;;;;;;;23.07;53.23;95444.30;1831827;77;26013;-88
2021/05/13 10:06:56;;;;;;;15.53;12.88;;;;;;;23.04;53.15;95444.42;1832661;77;27352;-85
2021/05/13 10:09:23;;;;;;;22.40;13.43;;;;;;;22.93;52.56;95443.23;1837210;77;25750;-89
2021/05/13 10:11:57;;;;;;;17.15;13.58;;;;;;;22.68;52.44;95446.97;1841798;77;25615;-88
2021/05/13 10:14:26;;;;;;;17.25;14.23;;;;;;;22.51;52.73;95451.45;1815228;77;25642;-86
2021/05/13 10:17:04;;;;;;;18.23;14.38;;;;;;;22.42;52.72;95445.22;1806114;77;25672;-86
2021/05/13 10:19:42;;;;;;;22.30;15.32;;;;;;;22.28;52.68;95444.66;1821086;77;28172;-86
2021/05/13 10:22:15;;;;;;;19.98;15.20;;;;;;;22.00;52.70;95422.92;1799131;77;25916;-91
2021/05/13 10:24:46;;;;;;;20.68;15.93;;;;;;;21.96;53.02;95444.74;1838941;77;25618;-89
2021/05/13 10:27:19;;;;;;;22.32;16.40;;;;;;;21.82;52.88;95450.45;1818551;77;25692;-88
2021/05/13 10:29:46;;;;;;;23.65;17.05;;;;;;;21.65;53.18;95442.84;1854087;77;25562;-90
2021/05/13 10:32:22;;;;;;;19.62;16.23;;;;;;;21.54;53.70;95441.03;1857348;77;28122;-90
2021/05/13 10:34:56;;;;;;;27.45;16.42;;;;;;;21.55;54.06;95435.78;1838723;77;25524;-90
2021/05/13 10:37:40;;;;;;;19.42;15.68;;;;;;;21.53;54.10;95440.79;1841455;77;25695;-90
2021/05/13 10:40:18;;;;;;;20.77;16.05;;;;;;;21.46;54.24;95446.80;1857347;77;25626;-90
2021/05/13 10:42:48;;;;;;;23.52;14.60;;;;;;;21.23;54.84;95421.28;1857067;77;25586;-89
2021/05/13 10:45:30;;;;;;;18.25;13.30;;;;;;;21.23;54.84;95421.28;1857003;77;27982;-88
2021/05/13 10:48:27;;;;;;;20.50;15.03;;;;;;;21.33;54.30;95442.88;1834835;77;25683;-89
2021/05/13 10:51:04;;;;;;;19.73;14.90;;;;;;;21.27;54.63;95440.06;1849143;77;25594;-90
2021/05/13 10:53:45;;;;;;;25.80;15.70;;;;;;;21.23;54.92;95445.41;1852550;77;26269;-89
2021/05/13 10:56:28;;;;;;;19.75;15.60;;;;;;;21.09;55.01;95442.83;1830603;77;25583;-92
2021/05/13 10:59:09;;;;;;;25.92;19.57;;;;;;;21.01;55.47;95446.96;1845631;77;27890;-88
2021/05/13 11:01:55;;;;;;;27.55;21.48;;;;;;;20.91;55.60;95448.08;1857628;77;25777;-86
2021/05/13 11:04:29;;;;;;;27.05;20.95;;;;;;;20.78;55.95;95447.68;1857476;77;25698;-89
2021/05/13 11:06:59;;;;;;;35.38;27.25;;;;;;;20.59;56.32;95440.36;1857413;77;26247;-86
2021/05/13 11:09:46;;;;;;;23.38;18.35;;;;;;;20.48;56.83;95439.31;1857483;77;25687;-85
2021/05/13 11:12:28;;;;;;;20.17;17.98;;;;;;;20.33;56.79;95445.22;1857628;77;27341;-87
2021/05/13 11:15:06;;;;;;;22.70;18.92;;;;;;;20.08;57.04;95435.84;1857553;77;25578;-88
2021/05/13 11:17:47;;;;;;;19.48;16.65;;;;;;;19.95;57.62;95426.38;1795095;78;25574;-90
2021/05/13 11:20:33;;;;;;;22.00;18.95;;;;;;;19.92;57.96;95425.67;1749579;80;25768;-89
2021/05/13 11:23:07;;;;;;;25.17;20.15;;;;;;;19.89;58.51;95425.73;1796635;79;25739;-89
2021/05/13 11:25:42;;;;;;;28.77;22.62;;;;;;;19.88;58.86;95428.22;1800252;78;27342;-89
2021/05/13 11:28:32;;;;;;;22.90;20.05;;;;;;;19.87;58.90;95432.65;1780805;79;25727;-88
2021/05/13 11:31:11;;;;;;;27.55;22.73;;;;;;;19.82;58.76;95436.33;1780473;79;25639;-86
2021/05/13 11:33:57;;;;;;;32.80;23.02;;;;;;;19.70;58.98;95435.56;1801255;78;26172;-89
2021/05/13 11:36:39;;;;;;;30.77;24.23;;;;;;;19.60;59.26;95444.06;1779172;79;25315;-89
2021/05/13 11:39:12;;;;;;;32.65;24.43;;;;;;;19.55;59.41;95448.33;1791536;79;28106;-88
2021/05/13 11:41:40;;;;;;;30.72;22.27;;;;;;;19.51;59.57;95439.12;1782291;79;25626;-88
2021/05/13 11:44:07;;;;;;;26.60;18.67;;;;;;;19.50;59.61;95449.81;1791702;79;25678;-86
2021/05/13 11:46:37;;;;;;;25.00;19.70;;;;;;;19.51;59.52;95450.63;1813743;79;25885;-82
2021/05/13 11:49:06;;;;;;;31.50;22.58;;;;;;;19.49;59.59;95458.34;1805715;79;25494;-85
2021/05/13 11:51:36;;;;;;;30.88;22.70;;;;;;;19.43;59.66;95459.02;1804936;79;27319;-87